»·PEaware :: N782S KABQ-KPRC

N782S :: KABQ-KPRC

FLIGHT INFORMATION

Flight Status: Arrived
Operator: Privately registered:
United States
More flights under this callsign
Pilot: Anonymous 38068 (38068)
Aircraft: CESSNA T210 TURBO CENTURION
(T210)
More flights by this aircraft type
Origin: KABQ Albuquerque Intl Sunport
United States
Destination: KPRC Love
United States
More flights between these airports :: More routes between these airports
Route:
File this flight plan on PilotEdge
Remarks:
Altitude:
(Current/Filed)
10,500ft
Speed:
(Current/Filed)
0kts
Departed: 10-Oct-23 05:27 PM
Arrived: 10-Oct-23 07:12 PM
Distance/Time
Traveled:
287nm/1:45
Distance/Time
To Go:
Arrived

Flight Plot

Page will automatically refresh every two minutes.

Flight plan parsing failed; only flown route is shown


Map Options




Map Legend


Flown Route
Filed Route
Departure Airport
Arrival Airport
Navaid (VOR, NDB)
Fix

Horizontal Profiles

Position Reports

Time Latitude Longitude Heading Altitude Ground
Speed
10-Oct-23 17:08 35.036575 -106.617335 136 5312ft 0kts
10-Oct-23 17:09 35.036575 -106.617335 136 5312ft 0kts
10-Oct-23 17:10 35.036575 -106.617335 136 5312ft 0kts
10-Oct-23 17:11 35.036574 -106.617334 135 5312ft 0kts
10-Oct-23 17:12 35.036347 -106.617331 206 5311ft 4kts
10-Oct-23 17:13 35.035303 -106.618224 215 5311ft 7kts
10-Oct-23 17:14 35.034857 -106.618753 182 5311ft 0kts
10-Oct-23 17:15 35.034857 -106.618753 182 5311ft 0kts
10-Oct-23 17:16 35.034705 -106.617736 49 5311ft 12kts
10-Oct-23 17:17 35.036509 -106.615569 38 5312ft 15kts
10-Oct-23 17:18 35.036772 -106.612166 129 5313ft 17kts
10-Oct-23 17:19 35.034675 -106.608992 130 5311ft 14kts
10-Oct-23 17:20 35.032808 -106.605766 50 5303ft 0kts
10-Oct-23 17:21 35.032808 -106.605766 50 5303ft 0kts
10-Oct-23 17:22 35.032808 -106.605766 50 5303ft 0kts
10-Oct-23 17:23 35.032808 -106.605766 50 5303ft 0kts
10-Oct-23 17:24 35.032808 -106.605766 50 5303ft 0kts
10-Oct-23 17:25 35.033436 -106.605530 309 5304ft 8kts
10-Oct-23 17:26 35.041901 -106.621823 287 5476ft 91kts
10-Oct-23 17:27 35.038791 -106.653209 257 6743ft 95kts
10-Oct-23 17:28 35.033703 -106.686051 254 8106ft 94kts
10-Oct-23 17:29 35.023054 -106.717682 255 9216ft 106kts
10-Oct-23 17:30 35.017158 -106.752509 255 10462ft 94kts
10-Oct-23 17:31 35.008789 -106.796987 266 10596ft 158kts
10-Oct-23 17:32 35.005642 -106.857260 267 10584ft 175kts
10-Oct-23 17:33 35.002463 -106.920434 267 10583ft 177kts
10-Oct-23 17:34 34.999384 -106.982251 267 10583ft 171kts
10-Oct-23 17:35 34.996319 -107.043483 267 10582ft 172kts
10-Oct-23 17:36 34.993271 -107.104826 267 10582ft 172kts
10-Oct-23 17:37 34.990237 -107.166389 267 10582ft 172kts
10-Oct-23 17:38 34.987194 -107.227802 267 10582ft 172kts
10-Oct-23 17:39 34.984211 -107.289377 267 10583ft 172kts
10-Oct-23 17:40 34.981264 -107.350742 267 10583ft 172kts
10-Oct-23 17:41 34.978320 -107.412519 267 10582ft 172kts
10-Oct-23 17:42 34.975412 -107.474026 267 10582ft 172kts
10-Oct-23 17:43 34.972529 -107.535429 267 10583ft 172kts
10-Oct-23 17:44 34.969675 -107.596952 268 10582ft 172kts
10-Oct-23 17:45 34.966853 -107.658283 267 10583ft 172kts
10-Oct-23 17:46 34.964049 -107.719717 267 10582ft 172kts
10-Oct-23 17:47 34.961262 -107.781279 267 10583ft 172kts
10-Oct-23 17:48 34.958499 -107.842804 267 10582ft 172kts
10-Oct-23 17:49 34.955760 -107.904292 267 10582ft 172kts
10-Oct-23 17:50 34.953042 -107.965808 267 10582ft 172kts
10-Oct-23 17:51 34.950345 -108.027364 267 10582ft 172kts
10-Oct-23 17:52 34.947673 -108.088858 267 10582ft 172kts
10-Oct-23 17:53 34.945024 -108.150325 267 10551ft 174kts
10-Oct-23 17:54 34.942371 -108.212299 268 10546ft 172kts
10-Oct-23 17:55 34.939763 -108.273902 268 10546ft 172kts
10-Oct-23 17:56 34.937179 -108.335461 268 10545ft 172kts
10-Oct-23 17:57 34.934620 -108.396951 268 10546ft 172kts
10-Oct-23 17:58 34.932078 -108.458546 268 10546ft 172kts
10-Oct-23 17:59 34.929562 -108.520084 268 10546ft 172kts
10-Oct-23 18:00 34.927070 -108.581579 268 10546ft 172kts
10-Oct-23 18:01 34.924593 -108.643207 268 10547ft 172kts
10-Oct-23 18:02 34.922147 -108.704690 267 10546ft 172kts
10-Oct-23 18:03 34.919715 -108.766429 268 10546ft 173kts
10-Oct-23 18:04 34.917296 -108.828338 268 10546ft 173kts
10-Oct-23 18:05 34.914906 -108.890103 268 10546ft 173kts
10-Oct-23 18:06 34.912536 -108.951964 268 10546ft 173kts
10-Oct-23 18:07 34.910183 -109.013977 268 10546ft 173kts
10-Oct-23 18:08 34.907852 -109.076000 268 10546ft 173kts
10-Oct-23 18:09 34.905547 -109.137954 268 10546ft 173kts
10-Oct-23 18:10 34.903262 -109.199951 268 10547ft 173kts
10-Oct-23 18:11 34.900997 -109.262051 268 10546ft 173kts
10-Oct-23 18:12 34.898760 -109.324012 268 10546ft 173kts
10-Oct-23 18:13 34.896549 -109.385901 268 10546ft 173kts
10-Oct-23 18:14 34.894357 -109.447885 268 10545ft 173kts
10-Oct-23 18:15 34.892188 -109.509877 268 10545ft 173kts
10-Oct-23 18:16 34.890042 -109.571842 268 10545ft 173kts
10-Oct-23 18:17 34.887910 -109.634060 268 10546ft 173kts
10-Oct-23 18:18 34.885818 -109.695786 268 10546ft 173kts
10-Oct-23 18:19 34.883744 -109.757693 268 10545ft 173kts
10-Oct-23 18:20 34.881687 -109.819742 268 10546ft 173kts
10-Oct-23 18:21 34.879652 -109.881830 268 10546ft 173kts
10-Oct-23 18:22 34.877646 -109.943725 268 10546ft 173kts
10-Oct-23 18:23 34.875656 -110.005825 268 10546ft 173kts
10-Oct-23 18:24 34.873687 -110.067926 268 10546ft 173kts
10-Oct-23 18:25 34.885554 -110.124306 329 10553ft 172kts
10-Oct-23 18:26 34.935347 -110.130613 359 10546ft 172kts
10-Oct-23 18:27 34.975895 -110.156198 284 10539ft 172kts
10-Oct-23 18:28 34.975382 -110.217966 268 10546ft 173kts
10-Oct-23 18:29 34.973494 -110.280005 268 10546ft 173kts
10-Oct-23 18:30 34.971624 -110.341980 269 10545ft 173kts
10-Oct-23 18:31 34.969766 -110.404153 269 10546ft 173kts
10-Oct-23 18:32 35.000255 -110.448344 330 10547ft 172kts
10-Oct-23 18:33 35.044101 -110.479245 331 10546ft 172kts
10-Oct-23 18:34 35.087770 -110.509986 331 10597ft 170kts
10-Oct-23 18:35 35.129395 -110.543537 302 10590ft 173kts
10-Oct-23 18:36 35.115587 -110.596903 225 10602ft 173kts
10-Oct-23 18:37 35.090460 -110.649251 254 10603ft 173kts
10-Oct-23 18:38 35.076306 -110.708816 254 10601ft 174kts
10-Oct-23 18:39 35.062074 -110.768504 254 10601ft 174kts
10-Oct-23 18:40 35.047848 -110.828023 254 10602ft 174kts
10-Oct-23 18:41 35.033560 -110.887658 254 10601ft 174kts
10-Oct-23 18:42 35.019197 -110.947460 254 10601ft 174kts
10-Oct-23 18:43 35.004783 -111.007334 254 10601ft 174kts
10-Oct-23 18:44 34.990346 -111.067153 254 10600ft 174kts
10-Oct-23 18:45 34.975921 -111.126813 254 10600ft 174kts
10-Oct-23 18:46 34.961363 -111.186832 254 10601ft 174kts
10-Oct-23 18:47 34.946817 -111.246683 254 10601ft 174kts
10-Oct-23 18:48 34.932269 -111.306403 254 10600ft 174kts
10-Oct-23 18:49 34.917667 -111.366237 254 10611ft 173kts
10-Oct-23 18:50 34.903063 -111.425913 254 10601ft 174kts
10-Oct-23 18:51 34.889518 -111.484178 265 10603ft 171kts
10-Oct-23 18:52 34.888681 -111.540059 270 10600ft 170kts
10-Oct-23 18:53 34.888058 -111.600843 270 10600ft 170kts
10-Oct-23 18:54 34.887359 -111.661466 269 10600ft 170kts
10-Oct-23 18:55 34.886630 -111.721832 269 10600ft 170kts
10-Oct-23 18:57 34.885864 -111.782603 269 10600ft 170kts
10-Oct-23 18:58 34.885085 -111.843433 269 10601ft 170kts
10-Oct-23 18:59 34.884255 -111.904133 269 10601ft 170kts
10-Oct-23 19:00 34.883387 -111.964818 269 10601ft 170kts
10-Oct-23 19:01 34.882509 -112.025129 269 10599ft 168kts
10-Oct-23 19:02 34.881598 -112.084944 269 10600ft 167kts
10-Oct-23 19:03 34.880597 -112.147999 269 10093ft 182kts
10-Oct-23 19:04 34.854590 -112.201252 236 9831ft 182kts
10-Oct-23 19:05 34.817451 -112.245916 223 8975ft 161kts
10-Oct-23 19:06 34.786059 -112.279409 222 8179ft 127kts
10-Oct-23 19:07 34.759834 -112.307215 221 7557ft 127kts
10-Oct-23 19:08 34.729954 -112.339121 221 6771ft 138kts
10-Oct-23 19:09 34.700303 -112.370840 222 5973ft 125kts
10-Oct-23 19:10 34.677701 -112.394743 220 5407ft 84kts
10-Oct-23 19:11 34.659124 -112.414419 230 4963ft 64kts
10-Oct-23 19:12 34.652036 -112.421950 224 5003ft 23kts
10-Oct-23 19:13 34.650783 -112.422034 131 5007ft 0kts
10-Oct-23 19:14 34.650168 -112.422304 217 5009ft 16kts
10-Oct-23 19:15 34.647562 -112.425048 217 5020ft 14kts
10-Oct-23 19:16 34.646737 -112.425132 222 5022ft 1kts
10-Oct-23 19:17 34.646530 -112.425058 35 5024ft 0kts
10-Oct-23 19:18 34.646530 -112.425058 35 5024ft 0kts
10-Oct-23 19:19 34.646530 -112.425058 35 5024ft 0kts
10-Oct-23 19:20 34.646530 -112.425058 35 5024ft 0kts
10-Oct-23 19:21 34.646530 -112.425058 35 5024ft 0kts
10-Oct-23 19:22 34.646530 -112.425058 35 5024ft 0kts
10-Oct-23 19:23 34.646530 -112.425058 35 5024ft 0kts
10-Oct-23 19:24 34.646530 -112.425058 35 5024ft 0kts
10-Oct-23 19:24 34.646530 -112.425058 35 5024ft 0kts

Navigation Log

Ident Type
Flight plan parsing failed, navigation log unavailable